Aviation Digital Data Service (ADDS)

Output produced by METARs form (1031 UTC 19 January 2019)
found at http://www.aviationweather.gov/metar/data/
 
KAKO 190953Z AUTO 29008KT 10SM SCT046 BKN085 M06/M07 A3015 RMK AO2 SLP251 T10611067
KALS 190952Z AUTO 23009KT 10SM CLR M20/M22 A3025 RMK AO2 SLP310 T12001217
KALS 190527Z 1906/2006 01006KT P6SM FEW200 
     FM191200 VRB04KT 5SM BR SCT010 
     FM191600 VRB06KT P6SM FEW200 
     FM200300 VRB03KT P6SM FEW010 SCT200
       
KASE 191002Z AUTO 32003KT 10SM BKN026 M08/M11 A3030 RMK AO2 T10831106
KASE 190638Z 1907/2006 00000KT P6SM BKN016 OVC070 
     FM192300 29005KT P6SM SCT090 BKN200
       
KBDU 191012Z AUTO 00000KT 10SM CLR M03/M05 A3017 RMK AO2
KAEJ 191015Z AUTO 32009G17KT 10SM CLR M05/M13 A3021 RMK AO2 T10471129
KITR 190953Z AUTO 35013G22KT 9SM OVC003 M06/M07 A3016 RMK AO2 SLP241 T10561067
KCOS 190954Z 34009KT 10SM CLR M02/M11 A3016 RMK AO2 SLP246 T10221106
KCOS 190527Z 1906/2006 34009KT P6SM SCT080 SCT140 
     FM191000 34007KT P6SM FEW140 SCT250 
     FM191700 17008KT P6SM FEW250 
     FM200200 03007KT P6SM SCT250
       
KFLY 191015Z AUTO 29007KT 10SM CLR M05/M12 A3016 RMK AO2 T10541124
KCEZ 190953Z AUTO 05006KT 10SM CLR M07/M09 A3035 RMK AO2 SLP291 T10721094
KCAG 191010Z AUTO 25004KT 4SM BR CLR M16/M18 A3035 RMK AO2 T11611178 TSNO
KAJZ 191015Z AUTO 02003KT 10SM CLR M03/M05 A3040 RMK AO2 T10301052
KAPA 190953Z 24008KT 10SM FEW080 M06/M10 A3016 RMK AO2 SLP255 T10561100
KAPA 190520Z 1906/2006 18006KT P6SM SCT090 SCT220 
     FM191600 15007KT P6SM FEW120 SCT220 
     FM200200 20009KT P6SM SCT220
       
KDEN 190953Z 16008KT 10SM FEW085 M04/M07 A3017 RMK AO2 SLP236 T10441067
KDEN 190852Z 1909/2012 10007KT P6SM SCT090 SCT220 
     FM191500 15007KT P6SM SCT120 SCT220 
     FM192200 30012KT P6SM SCT120 BKN200 
     FM200200 21009KT P6SM SCT220
       
KFTG 191012Z AUTO 18006KT 10SM CLR M04/M06 A3017 RMK AO2 T10451064
KBJC 191012Z AUTO 06004KT 10SM CLR M03/M06 A3017 RMK AO2 PWINO
KBJC 190735Z 1908/2006 28014KT P6SM FEW120 
     FM191700 29014G22KT P6SM SCT120 BKN220 
     FM200100 30010KT P6SM SCT110 BKN200
       
KDRO 190953Z AUTO 10003KT 10SM CLR M12/M13 A3030 RMK AO2 SLP311 T11221128 $
KDRO 190638Z 1907/2006 34004KT P6SM SKC 
     FM191500 VRB03KT P6SM FEW250
       
KEGE 190956Z AUTO 15003KT 10SM FEW060 M10/M11 A3036 RMK AO2 SLP339 T11001111 FZRANO
KEGE 190638Z 1907/2006 24003KT P6SM BKN050 OVC080 
     FM191300 VRB03KT P6SM FEW080 SCT200
       
KEIK 191012Z AUTO 22003KT 10SM CLR M06/M07 A3024 RMK AO2 T10581072
KFNL 190956Z AUTO 20006KT 10SM CLR M07/M08 A3018 RMK AO2 SLP242 T10671078 FZRANO PNO $
KFMM 191015Z AUTO 30008KT 10SM M05/M07 A3018 RMK AO2 T10551067
KGNB 191005Z AUTO 00000KT 10SM -SN SCT034 BKN044 BKN049 M07/M10 A3028 RMK AO2 T10721098
KGJT 190953Z AUTO 12006KT 10SM CLR M03/M04 A3037 RMK AO2 SLP298 T10331044
KGJT 190638Z 1907/2006 00000KT P6SM FEW250 
     FM191300 VRB04KT P6SM FEW100 SCT200
       
KGXY 190956Z AUTO 10003KT 10SM CLR M08/M10 A3019 RMK AO2 SLP267 T10831100 FZRANO
KGUC 190956Z AUTO 00000KT 8SM CLR M16/M18 A3034 RMK AO2 SLP350 T11561178 FZRANO
KGUC 190638Z 1907/2006 35004KT P6SM FEW250 
     FM192000 26006KT P6SM FEW100 SCT200 
     FM200300 VRB03KT P6SM FEW100 SCT250
       
KHDN 190956Z AUTO 06003KT 10SM OVC044 M06/M07 A3034 RMK AO2 SNE18 SLP309 P0000 T10561072 FZRANO
KHDN 190638Z 1907/2006 28007KT P6SM SCT035 BKN050 OVC070 
     FM191600 12005KT P6SM BKN080 
     FM192200 VRB04KT P6SM BKN050 OVC060 
     FM200400 VRB04KT P6SM SCT050 BKN070
       
KHEQ 191010Z AUTO 36008KT 10SM OVC012 M05/M09 A3021 RMK AO2
K20V 191012Z AUTO 00000KT 10SM -SN OVC047 M06/M07 A3031 RMK AO2
KLHX 190953Z AUTO 30007KT 10SM CLR M04/M07 A3020 RMK AO2 SLP242 T10441067
KLAA 190953Z AUTO 25005KT 10SM CLR M09/M11 A3018 RMK AO2 SLP249 I1000 T10941111 PWINO FZRANO $
KLXV 191002Z AUTO 04006KT 10SM SCT017 M14/M16 A3023 RMK AO2 T11441161
KLIC 190955Z AUTO 28010KT 10SM CLR M07/M08 A3016 RMK AO2 SLP247 T10671078
KLMO 191015Z AUTO 00000KT 10SM CLR M05/M07 A3020 RMK AO2 T10481071
KEEO 190953Z AUTO 05003KT 10SM CLR M16/M19 A3035 RMK AO2 SLP337 I1000 T11611189
KMTJ 190953Z AUTO 14006KT 10SM CLR M07/M10 A3040 RMK AO2 SLP307 T10721100
KMTJ 190638Z 1907/2006 15007KT P6SM OVC070
       
KAIB 191015Z AUTO 12004KT 10SM CLR M05/M07 A3041 RMK AO2
KPSO 191015Z AUTO 00000KT 10SM CLR M09/M12 A3029 RMK AO2 T10861124
KPUB 190953Z AUTO 28007KT 10SM CLR M04/M06 A3017 RMK AO2 SLP233 T10441061
KPUB 190527Z 1906/2006 29008KT P6SM SCT090 SCT150 
     FM191000 27006KT P6SM FEW150 SCT250 
     FM191600 24008KT P6SM FEW250 
     FM192100 16008KT P6SM SKC 
     FM200200 VRB06KT P6SM FEW250
       
K4V0 191015Z AUTO 00000KT 10SM BKN002 M16/M18 A3040 RMK AO2 T11601179
KRIL 190953Z AUTO 17003KT 10SM CLR M07/M09 A3038 RMK AO2 SLP314 T10671094
KRIL 190638Z 1907/2006 00000KT P6SM SCT050 SCT070 BKN080 
     FM191300 VRB03KT P6SM FEW090 SCT200
       
KANK 191015Z AUTO 26006KT 10SM CLR M07/M13 A3031 RMK AO1 T10741133
KSBS 191015Z AUTO 11003KT 5SM SCT017 OVC050 M06/M06 A3032 RMK AO1 T10561058
KSTK 191030Z AUTO 05004KT 10SM OVC005 M07/M07 A3020 RMK AO2
KTEX 191015Z AUTO 00000KT 10SM BKN015 M07/M10 A3033 RMK AO2
KTEX 190638Z 1907/2006 30003KT 5SM -SN SCT008 OVC014 
     FM191400 13006KT P6SM FEW250 
     FM192300 30005KT P6SM FEW090 SCT200
       
KTAD 190954Z AUTO 10SM CLR M04/M06 A3018 RMK AO2 SLP239 T10391061
K33V 191015Z AUTO 16004KT 10SM CLR M12/M16 A3025 RMK AO1
K2V5 191015Z AUTO 36004KT 10SM OVC010 M06/M08 A3021 RMK AO2
K2V6 191014Z AUTO 36009KT 7SM OVC005 M06/M07 A3019 RMK AO2